Time,TemperatureF,DewpointF,PressureIn,WindDirection,WindDirectionDegrees,WindSpeedMPH,WindSpeedGustMPH,Humidity,HourlyPrecipIn,Conditions,Clouds,dailyrainin,SoftwareType,DateUTC
2013-02-07 00:00:00,28.0,12.0,-100.00,NW,320,0.0,0.0,51,-99.99,,,-99.99,,2013-02-07 05:00:00,
2013-02-07 00:22:00,28.0,12.0,-100.00,NW,320,0.0,0.0,51,-99.99,,,-99.99,,2013-02-07 05:22:00,
2013-02-07 00:32:00,28.0,12.0,-100.00,NW,320,0.0,0.0,51,-99.99,,,-99.99,,2013-02-07 05:32:00,
2013-02-07 00:43:00,28.0,12.0,-100.00,NW,320,0.0,0.0,51,-99.99,,,-99.99,,2013-02-07 05:43:00,
2013-02-07 00:52:00,28.0,12.0,-100.00,NW,320,0.0,0.0,51,-99.99,,,-99.99,,2013-02-07 05:52:00,
2013-02-07 01:00:00,27.0,8.0,-100.00,North,354,0.0,0.0,45,-99.99,,,-99.99,,2013-02-07 06:00:00,
2013-02-07 01:22:00,27.0,8.0,-100.00,North,354,0.0,0.0,45,-99.99,,,-99.99,,2013-02-07 06:22:00,
2013-02-07 01:32:00,27.0,8.0,-100.00,North,354,0.0,0.0,45,-99.99,,,-99.99,,2013-02-07 06:32:00,
2013-02-07 01:43:00,27.0,8.0,-100.00,North,354,0.0,0.0,45,-99.99,,,-99.99,,2013-02-07 06:43:00,
2013-02-07 01:52:00,27.0,8.0,-100.00,North,354,0.0,0.0,45,-99.99,,,-99.99,,2013-02-07 06:52:00,
2013-02-07 02:22:00,26.0,6.0,-100.00,NNW,329,0.0,0.0,43,-99.99,,,-99.99,,2013-02-07 07:22:00,
2013-02-07 02:32:00,26.0,6.0,-100.00,NNW,329,0.0,0.0,43,-99.99,,,-99.99,,2013-02-07 07:32:00,
2013-02-07 02:42:00,26.0,6.0,-100.00,NNW,329,0.0,0.0,43,-99.99,,,-99.99,,2013-02-07 07:42:00,
2013-02-07 02:52:00,26.0,6.0,-100.00,NNW,329,0.0,0.0,43,-99.99,,,-99.99,,2013-02-07 07:52:00,
2013-02-07 03:22:00,26.0,5.0,-100.00,NW,326,0.0,0.0,42,-99.99,,,-99.99,,2013-02-07 08:22:00,
2013-02-07 03:32:00,26.0,5.0,-100.00,NW,326,0.0,0.0,42,-99.99,,,-99.99,,2013-02-07 08:32:00,
2013-02-07 03:42:00,26.0,5.0,-100.00,NW,326,0.0,0.0,42,-99.99,,,-99.99,,2013-02-07 08:42:00,
2013-02-07 03:52:00,26.0,5.0,-100.00,NW,326,0.0,0.0,42,-99.99,,,-99.99,,2013-02-07 08:52:00,
2013-02-07 04:00:00,26.0,7.0,-100.00,NW,318,0.0,3.0,46,-99.99,,,-99.99,,2013-02-07 09:00:00,
2013-02-07 04:22:00,26.0,7.0,-100.00,NW,318,0.0,3.0,46,-99.99,,,-99.99,,2013-02-07 09:22:00,
2013-02-07 04:32:00,26.0,7.0,-100.00,NW,318,0.0,3.0,46,-99.99,,,-99.99,,2013-02-07 09:32:00,
2013-02-07 04:42:00,26.0,7.0,-100.00,NW,318,0.0,3.0,46,-99.99,,,-99.99,,2013-02-07 09:42:00,
2013-02-07 04:52:00,26.0,7.0,-100.00,NW,318,0.0,3.0,46,-99.99,,,-99.99,,2013-02-07 09:52:00,
2013-02-07 05:00:00,25.0,7.0,-100.00,WNW,282,0.0,0.0,50,-99.99,,,-99.99,,2013-02-07 10:00:00,
2013-02-07 05:22:00,25.0,7.0,-100.00,WNW,282,0.0,0.0,50,-99.99,,,-99.99,,2013-02-07 10:22:00,
2013-02-07 05:32:00,25.0,7.0,-100.00,WNW,282,0.0,0.0,50,-99.99,,,-99.99,,2013-02-07 10:32:00,
2013-02-07 05:42:00,25.0,7.0,-100.00,WNW,282,0.0,0.0,50,-99.99,,,-99.99,,2013-02-07 10:42:00,
2013-02-07 05:52:00,25.0,7.0,-100.00,WNW,282,0.0,0.0,50,-99.99,,,-99.99,,2013-02-07 10:52:00,
2013-02-07 06:00:00,25.0,7.0,-100.00,NW,326,0.0,0.0,48,-99.99,,,-99.99,,2013-02-07 11:00:00,
2013-02-07 06:23:00,25.0,7.0,-100.00,NW,326,0.0,0.0,48,-99.99,,,-99.99,,2013-02-07 11:23:00,
2013-02-07 06:32:00,25.0,7.0,-100.00,NW,326,0.0,0.0,48,-99.99,,,-99.99,,2013-02-07 11:32:00,
2013-02-07 06:44:00,25.0,7.0,-100.00,NW,326,0.0,0.0,48,-99.99,,,-99.99,,2013-02-07 11:44:00,
2013-02-07 06:53:00,25.0,7.0,-100.00,NW,326,0.0,0.0,48,-99.99,,,-99.99,,2013-02-07 11:53:00,
2013-02-07 07:00:00,25.0,8.0,-100.00,NW,312,0.0,0.0,50,-99.99,,,-99.99,,2013-02-07 12:00:00,
2013-02-07 07:22:00,25.0,8.0,-100.00,NW,312,0.0,0.0,50,-99.99,,,-99.99,,2013-02-07 12:22:00,
2013-02-07 07:33:00,25.0,8.0,-100.00,NW,312,0.0,0.0,50,-99.99,,,-99.99,,2013-02-07 12:33:00,
2013-02-07 07:42:00,25.0,8.0,-100.00,NW,312,0.0,0.0,50,-99.99,,,-99.99,,2013-02-07 12:42:00,
2013-02-07 07:53:00,25.0,8.0,-100.00,NW,312,0.0,0.0,50,-99.99,,,-99.99,,2013-02-07 12:53:00,
2013-02-07 08:00:00,26.0,10.0,-100.00,NW,311,0.0,3.0,52,-99.99,,,-99.99,,2013-02-07 13:00:00,
2013-02-07 08:22:00,26.0,10.0,-100.00,NW,311,0.0,3.0,52,-99.99,,,-99.99,,2013-02-07 13:22:00,
2013-02-07 08:32:00,26.0,10.0,-100.00,NW,311,0.0,3.0,52,-99.99,,,-99.99,,2013-02-07 13:32:00,
2013-02-07 08:42:00,26.0,10.0,-100.00,NW,311,0.0,3.0,52,-99.99,,,-99.99,,2013-02-07 13:42:00,
2013-02-07 08:52:00,26.0,10.0,-100.00,NW,311,0.0,3.0,52,-99.99,,,-99.99,,2013-02-07 13:52:00,
2013-02-07 09:00:00,28.0,13.0,-100.00,North,355,0.0,4.0,52,-99.99,,,-99.99,,2013-02-07 14:00:00,
2013-02-07 09:22:00,28.0,13.0,-100.00,North,355,0.0,4.0,52,-99.99,,,-99.99,,2013-02-07 14:22:00,
2013-02-07 09:32:00,28.0,13.0,-100.00,North,355,0.0,4.0,52,-99.99,,,-99.99,,2013-02-07 14:32:00,
2013-02-07 09:42:00,28.0,13.0,-100.00,North,355,0.0,4.0,52,-99.99,,,-99.99,,2013-02-07 14:42:00,
2013-02-07 09:52:00,28.0,13.0,-100.00,North,355,0.0,4.0,52,-99.99,,,-99.99,,2013-02-07 14:52:00,
2013-02-07 10:00:00,31.0,17.0,-100.00,ENE,66,5.0,9.0,56,-99.99,,,-99.99,,2013-02-07 15:00:00,
2013-02-07 10:22:00,31.0,17.0,-100.00,ENE,66,5.0,9.0,56,-99.99,,,-99.99,,2013-02-07 15:22:00,
2013-02-07 10:32:00,31.0,17.0,-100.00,ENE,66,5.0,9.0,56,-99.99,,,-99.99,,2013-02-07 15:32:00,
2013-02-07 10:42:00,31.0,17.0,-100.00,ENE,66,5.0,9.0,56,-99.99,,,-99.99,,2013-02-07 15:42:00,
2013-02-07 10:52:00,31.0,17.0,-100.00,ENE,66,5.0,9.0,56,-99.99,,,-99.99,,2013-02-07 15:52:00,
2013-02-07 11:00:00,32.0,18.0,-100.00,ENE,62,7.0,13.0,58,-99.99,,,-99.99,,2013-02-07 16:00:00,
2013-02-07 11:22:00,32.0,18.0,-100.00,ENE,62,7.0,13.0,58,-99.99,,,-99.99,,2013-02-07 16:22:00,
2013-02-07 11:32:00,32.0,18.0,-100.00,ENE,62,7.0,13.0,58,-99.99,,,-99.99,,2013-02-07 16:32:00,
2013-02-07 11:42:00,32.0,18.0,-100.00,ENE,62,7.0,13.0,58,-99.99,,,-99.99,,2013-02-07 16:42:00,
2013-02-07 11:52:00,32.0,18.0,-100.00,ENE,62,7.0,13.0,58,-99.99,,,-99.99,,2013-02-07 16:52:00,
2013-02-07 12:00:00,31.0,17.0,-100.00,East,88,5.0,13.0,56,-99.99,,,-99.99,,2013-02-07 17:00:00,
2013-02-07 12:32:00,31.0,17.0,-100.00,East,88,5.0,13.0,56,-99.99,,,-99.99,,2013-02-07 17:32:00,
2013-02-07 12:43:00,31.0,17.0,-100.00,East,88,5.0,13.0,56,-99.99,,,-99.99,,2013-02-07 17:43:00,
2013-02-07 12:52:00,31.0,17.0,-100.00,East,88,5.0,13.0,56,-99.99,,,-99.99,,2013-02-07 17:52:00,
2013-02-07 13:00:00,31.0,17.0,-100.00,NE,45,4.0,11.0,57,-99.99,,,-99.99,,2013-02-07 18:00:00,
2013-02-07 13:32:00,31.0,17.0,-100.00,NE,45,4.0,11.0,57,-99.99,,,-99.99,,2013-02-07 18:32:00,
2013-02-07 13:42:00,31.0,17.0,-100.00,NE,45,4.0,11.0,57,-99.99,,,-99.99,,2013-02-07 18:42:00,
2013-02-07 13:52:00,31.0,17.0,-100.00,NE,45,4.0,11.0,57,-99.99,,,-99.99,,2013-02-07 18:52:00,
2013-02-07 14:00:00,31.0,16.0,-100.00,East,90,8.0,12.0,55,-99.99,,,-99.99,,2013-02-07 19:00:00,
2013-02-07 14:22:00,31.0,16.0,-100.00,East,90,8.0,12.0,55,-99.99,,,-99.99,,2013-02-07 19:22:00,
2013-02-07 14:32:00,31.0,16.0,-100.00,East,90,8.0,12.0,55,-99.99,,,-99.99,,2013-02-07 19:32:00,
2013-02-07 14:42:00,31.0,16.0,-100.00,East,90,8.0,12.0,55,-99.99,,,-99.99,,2013-02-07 19:42:00,
2013-02-07 14:52:00,31.0,16.0,-100.00,East,90,8.0,12.0,55,-99.99,,,-99.99,,2013-02-07 19:52:00,
2013-02-07 15:00:00,30.0,15.0,-100.00,NE,48,5.0,15.0,53,-99.99,,,-99.99,,2013-02-07 20:00:00,
2013-02-07 15:22:00,30.0,15.0,-100.00,NE,48,5.0,15.0,53,-99.99,,,-99.99,,2013-02-07 20:22:00,
2013-02-07 15:32:00,30.0,15.0,-100.00,NE,48,5.0,15.0,53,-99.99,,,-99.99,,2013-02-07 20:32:00,
2013-02-07 15:42:00,30.0,15.0,-100.00,NE,48,5.0,15.0,53,-99.99,,,-99.99,,2013-02-07 20:42:00,
2013-02-07 15:52:00,30.0,15.0,-100.00,NE,48,5.0,15.0,53,-99.99,,,-99.99,,2013-02-07 20:52:00,
2013-02-07 16:00:00,31.0,16.0,-100.00,NE,48,8.0,14.0,54,-99.99,,,-99.99,,2013-02-07 21:00:00,
2013-02-07 16:22:00,31.0,16.0,-100.00,NE,48,8.0,14.0,54,-99.99,,,-99.99,,2013-02-07 21:22:00,
2013-02-07 16:32:00,31.0,16.0,-100.00,NE,48,8.0,14.0,54,-99.99,,,-99.99,,2013-02-07 21:32:00,
2013-02-07 16:42:00,31.0,16.0,-100.00,NE,48,8.0,14.0,54,-99.99,,,-99.99,,2013-02-07 21:42:00,
2013-02-07 16:52:00,31.0,16.0,-100.00,NE,48,8.0,14.0,54,-99.99,,,-99.99,,2013-02-07 21:52:00,
2013-02-07 17:00:00,32.0,18.0,-100.00,NE,56,6.0,15.0,56,-99.99,,,-99.99,,2013-02-07 22:00:00,
2013-02-07 17:22:00,32.0,18.0,-100.00,NE,56,6.0,15.0,56,-99.99,,,-99.99,,2013-02-07 22:22:00,
2013-02-07 17:32:00,32.0,18.0,-100.00,NE,56,6.0,15.0,56,-99.99,,,-99.99,,2013-02-07 22:32:00,
2013-02-07 17:42:00,32.0,18.0,-100.00,NE,56,6.0,15.0,56,-99.99,,,-99.99,,2013-02-07 22:42:00,
2013-02-07 17:52:00,32.0,18.0,-100.00,NE,56,6.0,15.0,56,-99.99,,,-99.99,,2013-02-07 22:52:00,
2013-02-07 18:00:00,33.0,20.0,-100.00,East,87,5.0,15.0,59,-99.99,,,-99.99,,2013-02-07 23:00:00,
2013-02-07 18:22:00,33.0,20.0,-100.00,East,87,5.0,15.0,59,-99.99,,,-99.99,,2013-02-07 23:22:00,
2013-02-07 18:32:00,33.0,20.0,-100.00,East,87,5.0,15.0,59,-99.99,,,-99.99,,2013-02-07 23:32:00,
2013-02-07 18:42:00,33.0,20.0,-100.00,East,87,5.0,15.0,59,-99.99,,,-99.99,,2013-02-07 23:42:00,
2013-02-07 18:52:00,33.0,20.0,-100.00,East,87,5.0,15.0,59,-99.99,,,-99.99,,2013-02-07 23:52:00,
2013-02-07 19:00:00,34.0,21.0,-100.00,East,80,4.0,12.0,59,-99.99,,,-99.99,,2013-02-08 00:00:00,
2013-02-07 19:22:00,34.0,21.0,-100.00,East,80,4.0,12.0,59,-99.99,,,-99.99,,2013-02-08 00:22:00,
2013-02-07 19:32:00,34.0,21.0,-100.00,East,80,4.0,12.0,59,-99.99,,,-99.99,,2013-02-08 00:32:00,
2013-02-07 19:42:00,34.0,21.0,-100.00,East,80,4.0,12.0,59,-99.99,,,-99.99,,2013-02-08 00:42:00,
2013-02-07 19:52:00,34.0,21.0,-100.00,East,80,4.0,12.0,59,-99.99,,,-99.99,,2013-02-08 00:52:00,
2013-02-07 20:00:00,36.0,23.0,-100.00,ENE,61,8.0,14.0,60,-99.99,,,-99.99,,2013-02-08 01:00:00,
2013-02-07 20:21:00,36.0,23.0,-100.00,ENE,61,8.0,14.0,60,-99.99,,,-99.99,,2013-02-08 01:21:00,
2013-02-07 20:32:00,36.0,23.0,-100.00,ENE,61,8.0,14.0,60,-99.99,,,-99.99,,2013-02-08 01:32:00,
2013-02-07 20:42:00,36.0,23.0,-100.00,ENE,61,8.0,14.0,60,-99.99,,,-99.99,,2013-02-08 01:42:00,
2013-02-07 20:52:00,36.0,23.0,-100.00,ENE,61,8.0,14.0,60,-99.99,,,-99.99,,2013-02-08 01:52:00,
2013-02-07 21:00:00,37.0,26.0,-100.00,East,84,6.0,11.0,65,-99.99,,,-99.99,,2013-02-08 02:00:00,
2013-02-07 21:22:00,37.0,26.0,-100.00,East,84,6.0,11.0,65,-99.99,,,-99.99,,2013-02-08 02:22:00,
2013-02-07 21:32:00,37.0,26.0,-100.00,East,84,6.0,11.0,65,-99.99,,,-99.99,,2013-02-08 02:32:00,
2013-02-07 21:42:00,37.0,26.0,-100.00,East,84,6.0,11.0,65,-99.99,,,-99.99,,2013-02-08 02:42:00,
2013-02-07 21:52:00,37.0,26.0,-100.00,East,84,6.0,11.0,65,-99.99,,,-99.99,,2013-02-08 02:52:00,
2013-02-07 22:00:00,38.0,30.0,-100.00,ESE,114,10.0,12.0,72,-99.99,,,-99.99,,2013-02-08 03:00:00,
2013-02-07 22:23:00,38.0,30.0,-100.00,ESE,114,10.0,12.0,72,-99.99,,,-99.99,,2013-02-08 03:23:00,
2013-02-07 22:32:00,38.0,30.0,-100.00,ESE,114,10.0,12.0,72,-99.99,,,-99.99,,2013-02-08 03:32:00,
2013-02-07 22:42:00,38.0,30.0,-100.00,ESE,114,10.0,12.0,72,-99.99,,,-99.99,,2013-02-08 03:42:00,
2013-02-07 22:52:00,38.0,30.0,-100.00,ESE,114,10.0,12.0,72,-99.99,,,-99.99,,2013-02-08 03:52:00,
2013-02-07 23:00:00,39.0,32.0,-100.00,ENE,58,5.0,11.0,76,-99.99,,,-99.99,,2013-02-08 04:00:00,
2013-02-07 23:21:00,39.0,32.0,-100.00,ENE,58,5.0,11.0,76,-99.99,,,-99.99,,2013-02-08 04:21:00,
2013-02-07 23:32:00,39.0,32.0,-100.00,ENE,58,5.0,11.0,76,-99.99,,,-99.99,,2013-02-08 04:32:00,
2013-02-07 23:42:00,39.0,32.0,-100.00,ENE,58,5.0,11.0,76,-99.99,,,-99.99,,2013-02-08 04:42:00,
2013-02-07 23:52:00,39.0,32.0,-100.00,ENE,58,5.0,11.0,76,-99.99,,,-99.99,,2013-02-08 04:52:00,